Time;durP1;ratioP1;P1;durP2;ratioP2;P2;SDS_P1;SDS_P2;PMS_P1;PMS_P2;Temp;Humidity;BMP_temperature;BMP_pressure;BME280_temperature;BME280_humidity;BME280_pressure;Samples;Min_cycle;Max_cycle;Signal;HPM_P1;HPM_P2
2023/11/09 00:00:54;;;;;;;;;;;;;;;-144.99;100.00;52541.84;5081253;28;20018;-65
2023/11/09 00:03:20;;;;;;;;;;;;;;;-144.99;100.00;52517.41;5088494;28;19973;-65
2023/11/09 00:05:49;;;;;;;;;;;;;;;-144.99;100.00;52586.69;5079016;28;19940;-64
2023/11/09 00:08:16;;;;;;;;;;;;;;;-144.99;100.00;52533.69;5087125;28;19997;-64
2023/11/09 00:10:44;;;;;;;;;;;;;;;-144.99;100.00;52525.56;5086048;28;19928;-64
2023/11/09 00:13:10;;;;;;;;;;;;;;;-144.99;100.00;52547.97;5089244;28;19962;-66
2023/11/09 00:15:38;;;;;;;;;;;;;;;-144.99;100.00;52556.13;5088456;28;19974;-66
2023/11/09 00:18:05;;;;;;;;;;;;;;;-144.99;100.00;52576.50;5089110;28;20290;-65
2023/11/09 00:20:31;;;;;;;;;;;;;;;-144.99;100.00;52533.69;5078951;28;19987;-70
2023/11/09 00:22:58;;;;;;;;;;;;;;;-144.99;100.00;52562.25;5090083;28;20454;-70
2023/11/09 00:25:24;;;;;;;;;;;;;;;-144.99;100.00;52521.47;5086490;28;19974;-71
2023/11/09 00:27:52;;;;;;;;;;;;;;;-144.99;100.00;52543.91;5081969;28;20105;-70
2023/11/09 00:30:19;;;;;;;;;;;;;;;-144.99;100.00;52568.34;5081286;28;20346;-70
2023/11/09 00:32:45;;;;;;;;;;;;;;;-144.99;100.00;52545.94;5089484;28;19982;-70
2023/11/09 00:35:12;;;;;;;;;;;;;;;-144.99;100.00;52558.16;5089541;28;19923;-70
2023/11/09 00:37:38;;;;;;;;;;;;;;;-144.99;100.00;52566.31;5089786;28;19928;-67
2023/11/09 00:40:09;;;;;;;;;;;;;;;-144.99;100.00;52509.25;5082923;28;19959;-67
2023/11/09 00:42:36;;;;;;;;;;;;;;;-144.99;100.00;52554.09;5083133;28;19928;-66
2023/11/09 00:45:04;;;;;;;;;;;;;;;-144.99;100.00;52545.94;5083151;28;19974;-67
2023/11/09 00:47:30;;;;;;;;;;;;;;;-144.99;100.00;52562.25;5087041;28;19936;-68
2023/11/09 00:49:57;;;;;;;;;;;;;;;-144.99;100.00;52560.19;5089372;28;20031;-68
2023/11/09 00:52:24;;;;;;;;;;;;;;;-144.99;100.00;52562.25;5085965;28;19998;-68
2023/11/09 00:54:51;;;;;;;;;;;;;;;-144.99;100.00;52509.25;5082741;28;19928;-68
2023/11/09 00:57:17;;;;;;;;;;;;;;;-144.99;100.00;52586.69;5081900;28;19924;-68
2023/11/09 00:59:48;;;;;;;;;;;;;;;-144.99;100.00;52521.47;5088512;28;19977;-68
2023/11/09 01:02:16;;;;;;;;;;;;;;;-144.99;100.00;52537.78;5087761;28;19932;-68
2023/11/09 01:04:41;;;;;;;;;;;;;;;-144.99;100.00;52568.34;5088785;28;19924;-70
2023/11/09 01:07:09;;;;;;;;;;;;;;;-144.99;100.00;52541.84;5088112;28;20305;-69
2023/11/09 01:09:37;;;;;;;;;;;;;;;-144.99;100.00;52550.00;5086762;28;19966;-70
2023/11/09 01:12:04;;;;;;;;;;;;;;;-144.99;100.00;52529.63;5087795;28;20480;-68
2023/11/09 01:14:30;;;;;;;;;;;;;;;-144.99;100.00;52558.16;5082084;28;19967;-68
2023/11/09 01:16:57;;;;;;;;;;;;;;;-144.99;100.00;52525.56;5088525;28;19979;-66
2023/11/09 01:19:24;;;;;;;;;;;;;;;-144.99;100.00;52570.38;5085413;28;19971;-67
2023/11/09 01:21:51;;;;;;;;;;;;;;;-144.99;100.00;52521.47;5081180;28;19927;-66
2023/11/09 01:24:18;;;;;;;;;;;;;;;-144.99;100.00;52541.84;5085272;28;20004;-68
2023/11/09 01:26:44;;;;;;;;;;;;;;;-144.99;100.00;52554.09;5080506;28;19924;-66
2023/11/09 01:29:13;;;;;;;;;;;;;;;-144.99;100.00;52523.50;5086820;28;20469;-67
2023/11/09 01:31:40;;;;;;;;;;;;;;;-144.99;100.00;52570.38;5086839;28;19924;-67
2023/11/09 01:34:06;;;;;;;;;;;;;;;-144.99;100.00;52523.50;5084279;28;19932;-69
2023/11/09 01:36:34;;;;;;;;;;;;;;;-144.99;100.00;52515.34;5088562;28;20499;-69
2023/11/09 01:39:01;;;;;;;;;;;;;;;-144.99;100.00;52521.47;5088510;28;20402;-70
2023/11/09 01:41:27;;;;;;;;;;;;;;;-144.99;100.00;52533.69;5088691;28;19932;-70
2023/11/09 01:43:57;;;;;;;;;;;;;;;-144.99;100.00;52547.97;5078549;28;20009;-70
2023/11/09 01:46:24;;;;;;;;;;;;;;;-144.99;100.00;52521.47;5087823;28;19924;-71
2023/11/09 01:48:51;;;;;;;;;;;;;;;-144.99;100.00;52533.69;5088409;28;20023;-71
2023/11/09 01:51:18;;;;;;;;;;;;;;;-144.99;100.00;52537.78;5082815;28;19986;-70
2023/11/09 01:53:47;;;;;;;;;;;;;;;-144.99;100.00;52513.31;5084821;28;20406;-71
2023/11/09 01:56:14;;;;;;;;;;;;;;;-144.99;100.00;52521.47;5085581;28;19924;-71
2023/11/09 01:58:41;;;;;;;;;;;;;;;-144.99;100.00;52554.09;5088325;28;19924;-72
2023/11/09 02:01:10;;;;;;;;;;;;;;;-144.99;100.00;52539.81;5090274;28;19955;-72
2023/11/09 02:03:37;;;;;;;;;;;;;;;-144.99;100.00;52511.28;5088631;28;20014;-68
2023/11/09 02:06:03;;;;;;;;;;;;;;;-144.99;100.00;52543.91;5087185;28;19959;-68
2023/11/09 02:08:30;;;;;;;;;;;;;;;-144.99;100.00;52529.63;5083237;28;20053;-67
2023/11/09 02:10:58;;;;;;;;;;;;;;;-144.99;100.00;52545.94;5088351;28;20032;-69
2023/11/09 02:13:24;;;;;;;;;;;;;;;-144.99;100.00;52525.56;5087965;28;20444;-68
2023/11/09 02:15:51;;;;;;;;;;;;;;;-144.99;100.00;52533.69;5080602;28;20537;-68
2023/11/09 02:18:18;;;;;;;;;;;;;;;-144.99;100.00;52558.16;5088363;28;20105;-67
2023/11/09 02:20:46;;;;;;;;;;;;;;;-144.99;100.00;52509.25;5090572;28;20349;-68
2023/11/09 02:23:14;;;;;;;;;;;;;;;-144.99;100.00;52541.84;5092285;28;19963;-67
2023/11/09 02:25:43;;;;;;;;;;;;;;;-144.99;100.00;52545.94;5087472;28;19934;-68
2023/11/09 02:28:10;;;;;;;;;;;;;;;-144.99;100.00;52550.00;5091196;28;19924;-69
2023/11/09 02:30:36;;;;;;;;;;;;;;;-144.99;100.00;52472.56;5092255;28;20015;-69
2023/11/09 02:33:04;;;;;;;;;;;;;;;-144.99;100.00;52513.31;5091723;28;20108;-69
2023/11/09 02:35:31;;;;;;;;;;;;;;;-144.99;100.00;52511.28;5085125;28;20011;-72
2023/11/09 02:37:57;;;;;;;;;;;;;;;-144.99;100.00;52558.16;5091899;28;19924;-69
2023/11/09 02:40:24;;;;;;;;;;;;;;;-144.99;100.00;52537.78;5091636;28;19968;-69
2023/11/09 02:42:52;;;;;;;;;;;;;;;-144.99;100.00;52541.84;5080021;28;20404;-67
2023/11/09 02:45:18;;;;;;;;;;;;;;;-144.99;100.00;52521.47;5089817;28;19924;-68
2023/11/09 02:47:45;;;;;;;;;;;;;;;-144.99;100.00;52527.59;5090702;28;19967;-68
2023/11/09 02:50:11;;;;;;;;;;;;;;;-144.99;100.00;52513.31;5092046;28;19924;-69
2023/11/09 02:52:38;;;;;;;;;;;;;;;-144.99;100.00;52537.78;5083560;28;19963;-69
2023/11/09 02:55:05;;;;;;;;;;;;;;;-144.99;100.00;52554.09;5079839;28;19932;-69
2023/11/09 02:57:32;;;;;;;;;;;;;;;-144.99;100.00;52550.00;5081329;28;19936;-67
2023/11/09 03:00:03;;;;;;;;;;;;;;;-144.99;100.00;52521.47;5089270;28;19928;-70
2023/11/09 03:02:29;;;;;;;;;;;;;;;-144.99;100.00;52545.94;5095998;28;20329;-70
2023/11/09 03:04:55;;;;;;;;;;;;;;;-144.99;100.00;52537.78;5083171;28;20009;-70
2023/11/09 03:07:22;;;;;;;;;;;;;;;-144.99;100.00;52521.47;5082884;28;19928;-72
2023/11/09 03:09:49;;;;;;;;;;;;;;;-144.99;100.00;52533.69;5090672;28;20179;-72
2023/11/09 03:12:15;;;;;;;;;;;;;;;-144.99;100.00;52541.84;5091217;28;20455;-72
2023/11/09 03:14:42;;;;;;;;;;;;;;;-144.99;100.00;52513.31;5086822;28;20331;-70
2023/11/09 03:17:11;;;;;;;;;;;;;;;-144.99;100.00;52513.31;5080992;28;19967;-63
2023/11/09 03:19:38;;;;;;;;;;;;;;;-144.99;100.00;52509.25;5090557;28;19981;-64
2023/11/09 03:22:07;;;;;;;;;;;;;;;-144.99;100.00;52497.00;5091100;28;19981;-65
2023/11/09 03:24:34;;;;;;;;;;;;;;;-144.99;100.00;52507.19;5085657;28;20007;-65
2023/11/09 03:27:01;;;;;;;;;;;;;;;-144.99;100.00;52517.41;5090357;28;19977;-65
2023/11/09 03:29:27;;;;;;;;;;;;;;;-144.99;100.00;52550.00;5090695;28;20050;-65
2023/11/09 03:31:54;;;;;;;;;;;;;;;-144.99;100.00;52537.78;5090620;28;19967;-65
2023/11/09 03:34:22;;;;;;;;;;;;;;;-144.99;100.00;52509.25;5089437;28;19967;-65
2023/11/09 03:36:48;;;;;;;;;;;;;;;-144.99;100.00;52545.94;5088441;28;19943;-65
2023/11/09 03:39:15;;;;;;;;;;;;;;;-144.99;100.00;52513.31;5090655;28;19967;-69
2023/11/09 03:41:44;;;;;;;;;;;;;;;-144.99;100.00;52490.91;5090777;28;20287;-69
2023/11/09 03:44:10;;;;;;;;;;;;;;;-144.99;100.00;52507.19;5090441;28;19924;-69
2023/11/09 03:46:38;;;;;;;;;;;;;;;-144.99;100.00;52531.66;5087625;28;19932;-69
2023/11/09 03:49:06;;;;;;;;;;;;;;;-144.99;100.00;52464.41;5089668;28;20396;-69
2023/11/09 03:51:35;;;;;;;;;;;;;;;-144.99;100.00;52539.81;5080984;28;20036;-68
2023/11/09 03:54:03;;;;;;;;;;;;;;;-144.99;100.00;52541.84;5090920;28;19959;-65
2023/11/09 03:56:29;;;;;;;;;;;;;;;-144.99;100.00;52525.56;5088200;28;20453;-65
2023/11/09 03:58:56;;;;;;;;;;;;;;;-144.99;100.00;52533.69;5088399;28;20042;-65
2023/11/09 04:01:22;;;;;;;;;;;;;;;-144.99;100.00;52550.00;5095293;28;19989;-67
2023/11/09 04:03:49;;;;;;;;;;;;;;;-144.99;100.00;52533.69;5090798;28;19969;-67
2023/11/09 04:06:17;;;;;;;;;;;;;;;-144.99;100.00;52558.16;5089407;28;19982;-67
2023/11/09 04:08:46;;;;;;;;;;;;;;;-144.99;100.00;52533.69;5086058;28;20356;-64
2023/11/09 04:11:12;;;;;;;;;;;;;;;-144.99;100.00;52523.50;5082605;28;19925;-64
2023/11/09 04:13:39;;;;;;;;;;;;;;;-144.99;100.00;52539.81;5090224;28;20358;-63
2023/11/09 04:16:05;;;;;;;;;;;;;;;-144.99;100.00;52545.94;5084652;28;19928;-63
2023/11/09 04:18:33;;;;;;;;;;;;;;;-144.99;100.00;52574.47;5082476;28;20023;-63
2023/11/09 04:20:59;;;;;;;;;;;;;;;-144.99;100.00;52513.31;5090190;28;19932;-64
2023/11/09 04:23:26;;;;;;;;;;;;;;;-144.99;100.00;52521.47;5083682;28;20022;-63
2023/11/09 04:25:54;;;;;;;;;;;;;;;-144.99;100.00;52545.94;5089838;28;19924;-63
2023/11/09 04:28:20;;;;;;;;;;;;;;;-144.99;100.00;52505.16;5087371;28;19924;-64
2023/11/09 04:30:49;;;;;;;;;;;;;;;-144.99;100.00;52525.56;5089578;28;20073;-63
2023/11/09 04:33:17;;;;;;;;;;;;;;;-144.99;100.00;52484.78;5085927;28;19924;-64
2023/11/09 04:35:44;;;;;;;;;;;;;;;-144.99;100.00;52554.09;5089613;28;19924;-63
2023/11/09 04:38:14;;;;;;;;;;;;;;;-144.99;100.00;52562.25;5089790;28;20279;-63
2023/11/09 04:40:41;;;;;;;;;;;;;;;-144.99;100.00;52545.94;5087277;28;20410;-61
2023/11/09 04:43:11;;;;;;;;;;;;;;;-144.99;100.00;52547.97;5089769;28;19928;-62
2023/11/09 04:45:41;;;;;;;;;;;;;;;-144.99;100.00;52509.25;5089086;28;19986;-59
2023/11/09 04:48:09;;;;;;;;;;;;;;;-144.99;100.00;52499.06;5088864;28;20390;-59
2023/11/09 04:50:38;;;;;;;;;;;;;;;-144.99;100.00;52492.94;5087750;28;19930;-59
2023/11/09 04:53:17;;;;;;;;;;;;;;;-144.99;100.00;52525.56;5084647;28;20239;-59
2023/11/09 04:55:53;;;;;;;;;;;;;;;-144.99;100.00;52517.41;5089310;28;19989;-59
2023/11/09 05:06:52;;;;;;;;;;;;;;;-144.99;100.00;52525.56;5087562;28;20563;-68
2023/11/09 05:09:19;;;;;;;;;;;;;;;-144.99;100.00;52545.94;5076253;28;19989;-71
2023/11/09 05:11:45;;;;;;;;;;;;;;;-144.99;100.00;52523.50;5087692;28;19990;-71
2023/11/09 05:14:14;;;;;;;;;;;;;;;-144.99;100.00;52537.78;5087742;28;19928;-70
2023/11/09 05:16:40;;;;;;;;;;;;;;;-144.99;100.00;52541.84;5078161;28;20287;-70
2023/11/09 05:19:07;;;;;;;;;;;;;;;-144.99;100.00;52488.84;5089032;28;19952;-70
2023/11/09 05:21:33;;;;;;;;;;;;;;;-144.99;100.00;52525.56;5088161;28;20019;-70
2023/11/09 05:24:00;;;;;;;;;;;;;;;-144.99;100.00;52513.31;5088017;28;19977;-70
2023/11/09 05:26:26;;;;;;;;;;;;;;;-144.99;100.00;52484.78;5080527;28;20461;-69
2023/11/09 05:28:53;;;;;;;;;;;;;;;-144.99;100.00;52505.16;5080307;28;19978;-70
2023/11/09 05:31:23;;;;;;;;;;;;;;;-144.99;100.00;52533.69;5087835;28;19924;-68
2023/11/09 05:33:50;;;;;;;;;;;;;;;-144.99;100.00;52521.47;5085984;28;20447;-68
2023/11/09 05:36:16;;;;;;;;;;;;;;;-144.99;100.00;52509.25;5086604;28;19924;-69
2023/11/09 05:38:43;;;;;;;;;;;;;;;-144.99;100.00;52537.78;5083257;28;19932;-67
2023/11/09 05:41:10;;;;;;;;;;;;;;;-144.99;100.00;52501.09;5083875;28;19931;-69
2023/11/09 05:43:37;;;;;;;;;;;;;;;-144.99;100.00;52529.63;5084088;28;19931;-72
2023/11/09 05:46:03;;;;;;;;;;;;;;;-144.99;100.00;52521.47;5086761;28;20007;-69
2023/11/09 05:48:32;;;;;;;;;;;;;;;-144.99;100.00;52533.69;5088217;28;20099;-69
2023/11/09 05:50:58;;;;;;;;;;;;;;;-144.99;100.00;52541.84;5084817;28;20022;-69
2023/11/09 05:53:26;;;;;;;;;;;;;;;-144.99;100.00;52537.78;5084530;28;20032;-70
2023/11/09 05:55:53;;;;;;;;;;;;;;;-144.99;100.00;52533.69;5084243;28;20027;-73
2023/11/09 05:58:19;;;;;;;;;;;;;;;-144.99;100.00;52554.09;5088111;28;19960;-68
2023/11/09 06:00:46;;;;;;;;;;;;;;;-144.99;100.00;52509.25;5091606;28;19928;-65
2023/11/09 06:03:13;;;;;;;;;;;;;;;-144.99;100.00;52505.16;5095570;28;19947;-66
2023/11/09 06:05:41;;;;;;;;;;;;;;;-144.99;100.00;52521.47;5087751;28;19975;-66
2023/11/09 06:08:11;;;;;;;;;;;;;;;-144.99;100.00;52492.94;5088180;28;19943;-66
2023/11/09 06:10:38;;;;;;;;;;;;;;;-144.99;100.00;52521.47;5092401;28;19931;-71
2023/11/09 06:13:04;;;;;;;;;;;;;;;-144.99;100.00;52509.25;5092714;28;19928;-71
2023/11/09 06:15:32;;;;;;;;;;;;;;;-144.99;100.00;52521.47;5085305;28;20031;-71
2023/11/09 06:17:58;;;;;;;;;;;;;;;-144.99;100.00;52545.94;5091107;28;19963;-71
2023/11/09 06:20:26;;;;;;;;;;;;;;;-144.99;100.00;52497.00;5092273;28;20047;-70
2023/11/09 06:22:54;;;;;;;;;;;;;;;-144.99;100.00;52537.78;5085254;28;19924;-70
2023/11/09 06:25:20;;;;;;;;;;;;;;;-144.99;100.00;52501.09;5090550;28;20390;-70
2023/11/09 06:27:47;;;;;;;;;;;;;;;-144.99;100.00;52505.16;5088073;28;20226;-70
2023/11/09 06:30:14;;;;;;;;;;;;;;;-144.99;100.00;52543.91;5078012;28;20275;-70
2023/11/09 06:32:41;;;;;;;;;;;;;;;-144.99;100.00;52519.44;5090177;28;19924;-74
2023/11/09 06:35:13;;;;;;;;;;;;;;;-144.99;100.00;52513.31;5088295;28;19970;-73
2023/11/09 06:37:41;;;;;;;;;;;;;;;-144.99;100.00;52541.84;5091853;28;19932;-71
2023/11/09 06:40:10;;;;;;;;;;;;;;;-144.99;100.00;52537.78;5079729;28;20019;-72
2023/11/09 06:42:37;;;;;;;;;;;;;;;-144.99;100.00;52507.19;5088547;28;19924;-72
2023/11/09 06:45:05;;;;;;;;;;;;;;;-144.99;100.00;52509.25;5101784;28;19975;-72
2023/11/09 06:47:31;;;;;;;;;;;;;;;-144.99;100.00;52505.16;5100762;28;20430;-71
2023/11/09 06:49:58;;;;;;;;;;;;;;;-144.99;100.00;52541.84;5091217;28;19934;-71
2023/11/09 06:52:25;;;;;;;;;;;;;;;-144.99;100.00;52505.16;5091172;28;20265;-71
2023/11/09 06:54:51;;;;;;;;;;;;;;;-144.99;100.00;52488.84;5089103;28;19998;-70
2023/11/09 06:57:19;;;;;;;;;;;;;;;-144.99;100.00;52566.31;5091428;28;19924;-71
2023/11/09 06:59:46;;;;;;;;;;;;;;;-144.99;100.00;52533.69;5088208;28;20385;-71
2023/11/09 07:02:12;;;;;;;;;;;;;;;-144.99;100.00;52499.06;5091589;28;20316;-71
2023/11/09 07:04:39;;;;;;;;;;;;;;;-144.99;100.00;52537.78;5092070;28;19985;-71
2023/11/09 07:07:06;;;;;;;;;;;;;;;-144.99;100.00;52511.28;5082393;28;19924;-72
2023/11/09 07:09:33;;;;;;;;;;;;;;;-144.99;100.00;52513.31;5090398;28;19932;-71
2023/11/09 07:12:00;;;;;;;;;;;;;;;-144.99;100.00;52488.84;5086513;28;19989;-73
2023/11/09 07:14:28;;;;;;;;;;;;;;;-144.99;100.00;52515.34;5090805;28;20010;-71
2023/11/09 07:16:54;;;;;;;;;;;;;;;-144.99;100.00;52480.72;5083556;28;19960;-71
2023/11/09 07:19:21;;;;;;;;;;;;;;;-144.99;100.00;52488.84;5086420;28;20451;-72
2023/11/09 07:21:48;;;;;;;;;;;;;;;-144.99;100.00;52501.09;5084391;28;19924;-73
2023/11/09 07:24:17;;;;;;;;;;;;;;;-144.99;100.00;52525.56;5085404;28;20394;-73
2023/11/09 07:26:43;;;;;;;;;;;;;;;-144.99;100.00;52554.09;5071760;28;19935;-73
2023/11/09 07:29:10;;;;;;;;;;;;;;;-144.99;100.00;52541.84;5089451;28;20353;-73
2023/11/09 07:31:38;;;;;;;;;;;;;;;-144.99;100.00;52529.63;5083568;28;19924;-73
2023/11/09 07:34:05;;;;;;;;;;;;;;;-144.99;100.00;52550.00;5086715;28;20420;-72
2023/11/09 07:36:31;;;;;;;;;;;;;;;-144.99;100.00;52517.41;5082479;28;20386;-71
2023/11/09 07:38:58;;;;;;;;;;;;;;;-144.99;100.00;52529.63;5086646;28;20459;-73
2023/11/09 07:41:25;;;;;;;;;;;;;;;-144.99;100.00;52531.66;5087125;28;19996;-73
2023/11/09 07:43:52;;;;;;;;;;;;;;;-144.99;100.00;52558.16;5090212;28;19924;-73
2023/11/09 07:46:18;;;;;;;;;;;;;;;-144.99;100.00;52513.31;5087926;28;19977;-74
2023/11/09 07:48:46;;;;;;;;;;;;;;;-144.99;100.00;52492.94;5084871;28;20394;-73
2023/11/09 07:51:13;;;;;;;;;;;;;;;-144.99;100.00;52537.78;5090222;28;19989;-73
2023/11/09 07:53:40;;;;;;;;;;;;;;;-144.99;100.00;52547.97;5089798;28;20003;-73
2023/11/09 07:56:07;;;;;;;;;;;;;;;-144.99;100.00;52525.56;5088759;28;20011;-75
2023/11/09 07:58:34;;;;;;;;;;;;;;;-144.99;100.00;52509.25;5082927;28;20023;-72
2023/11/09 08:01:01;;;;;;;;;;;;;;;-144.99;100.00;52529.63;5090794;28;19927;-72
2023/11/09 08:03:28;;;;;;;;;;;;;;;-144.99;100.00;52501.09;5099201;28;20031;-72
2023/11/09 08:05:56;;;;;;;;;;;;;;;-144.99;100.00;52488.84;5084487;28;19989;-73
2023/11/09 08:08:22;;;;;;;;;;;;;;;-144.99;100.00;52521.47;5090635;28;20014;-72
2023/11/09 08:10:49;;;;;;;;;;;;;;;-144.99;100.00;52509.25;5086367;28;19970;-72
2023/11/09 08:13:16;;;;;;;;;;;;;;;-144.99;100.00;52550.00;5090113;28;20364;-72
2023/11/09 08:15:42;;;;;;;;;;;;;;;-144.99;100.00;52513.31;5079904;28;19924;-72
2023/11/09 08:18:08;;;;;;;;;;;;;;;-144.99;100.00;52529.63;5084191;28;20023;-71
2023/11/09 08:20:35;;;;;;;;;;;;;;;-144.99;100.00;52507.19;5087602;28;20013;-71
2023/11/09 08:23:03;;;;;;;;;;;;;;;-144.99;100.00;52554.09;5083370;28;19928;-70
2023/11/09 08:25:30;;;;;;;;;;;;;;;-144.99;100.00;52513.31;5083134;28;20030;-71
2023/11/09 08:27:56;;;;;;;;;;;;;;;-144.99;100.00;52521.47;5084210;28;20024;-70
2023/11/09 08:30:27;;;;;;;;;;;;;;;-144.99;100.00;52517.41;5086900;28;19924;-71
2023/11/09 08:32:55;;;;;;;;;;;;;;;-144.99;100.00;52558.16;5084502;28;19924;-71
2023/11/09 08:35:24;;;;;;;;;;;;;;;-144.99;100.00;52507.19;5089355;28;20224;-71
2023/11/09 08:37:52;;;;;;;;;;;;;;;-144.99;100.00;52523.50;5089456;28;19990;-73
2023/11/09 08:40:27;;;;;;;;;;;;;;;-144.99;100.00;52521.47;5089989;28;19995;-71
2023/11/09 08:42:54;;;;;;;;;;;;;;;-144.99;100.00;52509.25;5080375;28;19931;-71
2023/11/09 08:45:24;;;;;;;;;;;;;;;-144.99;100.00;52492.94;5096942;28;19967;-71
2023/11/09 08:47:51;;;;;;;;;;;;;;;-144.99;100.00;52501.09;5097420;28;19935;-72
2023/11/09 08:50:17;;;;;;;;;;;;;;;-144.99;100.00;52533.69;5087894;28;19940;-71
2023/11/09 08:52:44;;;;;;;;;;;;;;;-144.99;100.00;52547.97;5095413;22;20231;-73
2023/11/09 08:55:11;;;;;;;;;;;;;;;-144.99;100.00;52509.25;5091950;28;19924;-73
2023/11/09 08:57:40;;;;;;;;;;;;;;;-144.99;100.00;52554.09;5090771;28;19924;-73
2023/11/09 09:00:11;;;;;;;;;;;;;;;-144.99;100.00;52525.56;5090644;28;20006;-74
2023/11/09 09:02:41;;;;;;;;;;;;;;;-144.99;100.00;52521.47;5094799;28;19977;-73
2023/11/09 09:05:09;;;;;;;;;;;;;;;-144.99;100.00;52521.47;5087806;28;19936;-77
2023/11/09 09:07:36;;;;;;;;;;;;;;;-144.99;100.00;52513.31;5082286;28;20011;-74
2023/11/09 09:10:05;;;;;;;;;;;;;;;-144.99;100.00;52505.16;5094874;28;20033;-75
2023/11/09 09:12:31;;;;;;;;;;;;;;;-144.99;100.00;52525.56;5101625;28;20085;-78
2023/11/09 09:14:59;;;;;;;;;;;;;;;-144.99;100.00;52537.78;5104723;28;19924;-77
2023/11/09 09:17:26;;;;;;;;;;;;;;;-144.99;100.00;52501.09;5102689;28;19924;-76
2023/11/09 09:19:52;;;;;;;;;;;;;;;-144.99;100.00;52517.41;5103868;28;20326;-74
2023/11/09 09:22:19;;;;;;;;;;;;;;;-144.99;100.00;52492.94;5103617;28;19924;-76
2023/11/09 09:24:45;;;;;;;;;;;;;;;-144.99;100.00;52497.00;5098894;28;19980;-76
2023/11/09 09:27:12;;;;;;;;;;;;;;;-144.99;100.00;52521.47;5110981;28;19957;-79
2023/11/09 09:29:39;;;;;;;;;;;;;;;-144.99;100.00;52480.72;5112325;28;19918;-81
2023/11/09 09:32:08;;;;;;;;;;;;;;;-144.99;100.00;52529.63;5108538;28;19990;-80
2023/11/09 09:34:35;;;;;;;;;;;;;;;-144.99;100.00;52537.78;5109526;28;19928;-81
2023/11/09 09:37:02;;;;;;;;;;;;;;;-144.99;100.00;52521.47;5094337;28;20393;-80
2023/11/09 09:39:29;;;;;;;;;;;;;;;-144.99;100.00;52533.69;5111610;28;19924;-79
2023/11/09 09:41:58;;;;;;;;;;;;;;;-144.99;100.00;52509.25;5103635;28;19924;-78
2023/11/09 09:44:25;;;;;;;;;;;;;;;-144.99;100.00;52464.41;5113476;28;20220;-79
2023/11/09 09:46:56;;;;;;;;;;;;;;;-144.99;100.00;52511.28;5101671;28;19924;-78
2023/11/09 09:49:25;;;;;;;;;;;;;;;-144.99;100.00;52545.94;5103270;28;19959;-78
2023/11/09 09:51:52;;;;;;;;;;;;;;;-144.99;100.00;52519.44;5096662;28;19935;-75
2023/11/09 09:54:19;;;;;;;;;;;;;;;-144.99;100.00;52521.47;5107962;28;19938;-76
2023/11/09 09:56:47;;;;;;;;;;;;;;;-144.99;100.00;52505.16;5108548;28;19994;-76
2023/11/09 09:59:15;;;;;;;;;;;;;;;-144.99;100.00;52494.97;5121360;28;20014;-76
2023/11/09 10:01:47;;;;;;;;;;;;;;;-144.99;100.00;52503.13;5123363;28;19927;-77
2023/11/09 10:04:15;;;;;;;;;;;;;;;-144.99;100.00;52550.00;5116838;28;19928;-77
2023/11/09 10:06:45;;;;;;;;;;;;;;;-144.99;100.00;52525.56;5115368;28;20385;-76
2023/11/09 10:09:12;;;;;;;;;;;;;;;-144.99;100.00;52521.47;5122090;28;19930;-78
2023/11/09 10:11:38;;;;;;;;;;;;;;;-144.99;100.00;52525.56;5111758;28;19939;-78
2023/11/09 10:14:06;;;;;;;;;;;;;;;-144.99;100.00;52497.00;5113066;28;19924;-76
2023/11/09 10:16:33;;;;;;;;;;;;;;;-144.99;100.00;52525.56;5112454;28;19923;-78
2023/11/09 10:19:01;;;;;;;;;;;;;;;-144.99;100.00;52492.94;5113159;28;19935;-77
2023/11/09 10:21:30;;;;;;;;;;;;;;;-144.99;100.00;52468.47;5112726;28;19934;-77
2023/11/09 10:24:00;;;;;;;;;;;;;;;-144.99;100.00;52509.25;5116830;28;19930;-79
2023/11/09 10:26:39;;;;;;;;;;;;;;;-144.99;100.00;52517.41;5129357;28;19923;-78
2023/11/09 10:29:06;;;;;;;;;;;;;;;-144.99;100.00;52492.94;5130992;28;20297;-78
2023/11/09 10:31:33;;;;;;;;;;;;;;;-144.99;100.00;52529.63;5121703;28;19928;-75
2023/11/09 10:33:59;;;;;;;;;;;;;;;-144.99;100.00;52513.31;5116957;28;19994;-76
2023/11/09 10:36:26;;;;;;;;;;;;;;;-144.99;100.00;52511.28;5114080;28;19967;-79
2023/11/09 10:38:53;;;;;;;;;;;;;;;-144.99;100.00;52486.81;5121595;28;19928;-77
2023/11/09 10:41:21;;;;;;;;;;;;;;;-144.99;100.00;52554.09;5114714;28;20384;-77
2023/11/09 10:43:49;;;;;;;;;;;;;;;-144.99;100.00;52488.84;5105894;28;19928;-77
2023/11/09 10:46:17;;;;;;;;;;;;;;;-144.99;100.00;52501.09;5106693;28;19924;-76
2023/11/09 10:48:45;;;;;;;;;;;;;;;-144.99;100.00;52529.63;5126449;28;19912;-77
2023/11/09 10:51:11;;;;;;;;;;;;;;;-144.99;100.00;52517.41;5132482;28;19932;-76
2023/11/09 10:53:43;;;;;;;;;;;;;;;-144.99;100.00;52505.16;5132890;28;20377;-75
2023/11/09 10:56:13;;;;;;;;;;;;;;;-144.99;100.00;52490.91;5136001;28;19927;-81
2023/11/09 10:58:44;;;;;;;;;;;;;;;-144.99;100.00;52478.66;5139119;27;19949;-80
2023/11/09 11:01:12;;;;;;;;;;;;;;;-144.99;100.00;52488.84;5137569;27;19931;-78
2023/11/09 11:03:44;;;;;;;;;;;;;;;-144.99;100.00;52501.09;5136865;28;19924;-80
2023/11/09 11:06:11;;;;;;;;;;;;;;;-144.99;100.00;52476.63;5125856;28;19928;-80
2023/11/09 11:08:40;;;;;;;;;;;;;;;-144.99;100.00;52497.00;5127550;28;19932;-79
2023/11/09 11:11:09;;;;;;;;;;;;;;;-144.99;100.00;52492.94;5133811;28;20018;-77
2023/11/09 11:13:40;;;;;;;;;;;;;;;-144.99;100.00;52525.56;5130474;28;19923;-77
2023/11/09 11:16:30;;;;;;;;;;;;;;;-144.99;100.00;52472.56;5130465;27;19924;-76
2023/11/09 11:19:06;;;;;;;;;;;;;;;-144.99;100.00;52511.28;5115891;28;19972;-77
2023/11/09 11:21:41;;;;;;;;;;;;;;;-144.99;100.00;52476.63;5125286;28;19920;-77
2023/11/09 11:24:16;;;;;;;;;;;;;;;-144.99;100.00;52509.25;5132072;28;19934;-77
2023/11/09 11:26:51;;;;;;;;;;;;;;;-144.99;100.00;52527.59;5132089;28;19932;-75
2023/11/09 11:29:18;;;;;;;;;;;;;;;-144.99;100.00;52525.56;5133158;28;19924;-80
2023/11/09 11:31:46;;;;;;;;;;;;;;;-144.99;100.00;52494.97;5121961;27;19933;-81
2023/11/09 11:34:16;;;;;;;;;;;;;;;-144.99;100.00;52521.47;5128070;28;19923;-78
2023/11/09 11:36:47;;;;;;;;;;;;;;;-144.99;100.00;52482.75;5134498;28;19912;-81
2023/11/09 11:39:35;;;;;;;;;;;;;;;-144.99;100.00;52509.25;5125346;28;19965;-77
2023/11/09 11:42:15;;;;;;;;;;;;;;;-144.99;100.00;52505.16;5105798;28;19924;-76
2023/11/09 11:44:47;;;;;;;;;;;;;;;-144.99;100.00;52497.00;5090340;28;20027;-76
2023/11/09 11:47:15;;;;;;;;;;;;;;;-144.99;100.00;52533.69;5112229;28;20338;-75
2023/11/09 11:49:43;;;;;;;;;;;;;;;-144.99;100.00;52554.09;5111910;28;19934;-76
2023/11/09 11:52:10;;;;;;;;;;;;;;;-144.99;100.00;52497.00;5111695;28;20011;-77
2023/11/09 11:54:36;;;;;;;;;;;;;;;-144.99;100.00;52525.56;5109429;28;19924;-77
2023/11/09 11:57:04;;;;;;;;;;;;;;;-144.99;100.00;52515.34;5110640;28;19924;-77
2023/11/09 11:59:31;;;;;;;;;;;;;;;-144.99;100.00;52490.91;5115721;27;19950;-76
2023/11/09 12:01:58;;;;;;;;;;;;;;;-144.99;100.00;52515.34;5108467;28;19928;-78
2023/11/09 12:04:25;;;;;;;;;;;;;;;-144.99;100.00;52505.16;5104623;28;20023;-76
2023/11/09 12:06:54;;;;;;;;;;;;;;;-144.99;100.00;52509.25;5129379;27;19927;-78
2023/11/09 12:09:20;;;;;;;;;;;;;;;-144.99;100.00;52525.56;5115423;27;19996;-77
2023/11/09 12:11:47;;;;;;;;;;;;;;;-144.99;100.00;52515.34;5115102;28;19932;-77
2023/11/09 12:14:17;;;;;;;;;;;;;;;-144.99;100.00;52521.47;5105938;28;19928;-77
2023/11/09 12:16:43;;;;;;;;;;;;;;;-144.99;100.00;52517.41;5106716;28;19934;-77
2023/11/09 12:19:12;;;;;;;;;;;;;;;-144.99;100.00;52509.25;5121486;28;19991;-77
2023/11/09 12:21:38;;;;;;;;;;;;;;;-144.99;100.00;52492.94;5118016;28;19927;-78
2023/11/09 12:24:12;;;;;;;;;;;;;;;-144.99;100.00;52523.50;5111389;28;20488;-76
2023/11/09 12:26:39;;;;;;;;;;;;;;;-144.99;100.00;52476.63;5111649;28;19924;-76
2023/11/09 12:29:07;;;;;;;;;;;;;;;-144.99;100.00;52513.31;5119050;27;20163;-74